createdAt,value
2018-04-19T06:34:15.598Z,1023.53
2018-04-19T06:35:15.537Z,1023.54
2018-04-19T06:37:08.416Z,1023.56
2018-04-19T06:38:08.392Z,1023.52
2018-04-19T06:39:08.368Z,1023.55
2018-04-19T06:40:08.352Z,1023.53
2018-04-19T06:41:08.326Z,1023.59
2018-04-19T06:42:08.309Z,1023.56
2018-04-19T06:43:08.274Z,1023.57
2018-04-19T06:44:08.256Z,1023.56
2018-04-19T06:45:08.224Z,1023.59
2018-04-19T06:46:08.213Z,1023.57
2018-04-19T06:47:08.179Z,1023.57
2018-04-19T06:48:08.162Z,1023.56
2018-04-19T06:49:08.143Z,1023.55
2018-04-19T06:50:08.107Z,1023.57
2018-04-19T06:51:08.125Z,1023.57
2018-04-19T06:52:08.076Z,1023.56
2018-04-19T06:53:08.061Z,1023.59
2018-04-19T06:54:08.036Z,1023.62
2018-04-19T06:55:08.001Z,1023.59
2018-04-19T06:56:07.978Z,1023.60
2018-04-19T06:57:07.955Z,1023.58
2018-04-19T06:58:07.934Z,1023.63
2018-04-19T06:59:07.911Z,1023.59
2018-04-19T07:00:07.887Z,1023.61
2018-04-19T07:01:07.861Z,1023.58
2018-04-19T07:02:07.860Z,1023.63
2018-04-19T07:03:07.814Z,1023.62
2018-04-19T07:04:08.802Z,1023.63
2018-04-19T07:05:07.778Z,1023.62
2018-04-19T07:06:07.748Z,1023.63
2018-04-19T07:07:07.758Z,1023.61
2018-04-19T07:08:07.707Z,1023.60
2018-04-19T07:09:07.700Z,1023.61
2018-04-19T07:10:07.670Z,1023.60
2018-04-19T07:11:07.640Z,1023.57
2018-04-19T07:12:07.810Z,1023.59
2018-04-19T07:13:07.598Z,1023.62
2018-04-19T07:14:07.583Z,1023.63
2018-04-19T07:15:07.597Z,1023.62
2018-04-19T07:16:07.531Z,1023.61
2018-04-19T07:17:07.509Z,1023.59
2018-04-19T07:18:07.482Z,1023.58
2018-04-19T07:19:07.470Z,1023.61
2018-04-19T07:20:07.433Z,1023.59
2018-04-19T07:21:07.534Z,1023.62
2018-04-19T07:22:07.393Z,1023.63
2018-04-19T07:23:07.385Z,1023.63
2018-04-19T07:24:07.348Z,1023.64
2018-04-19T07:25:07.365Z,1023.64
2018-04-19T07:26:07.307Z,1023.61
2018-04-19T07:27:07.285Z,1023.60
2018-04-19T07:28:07.264Z,1023.60
2018-04-19T07:29:07.242Z,1023.62
2018-04-19T07:30:07.209Z,1023.60
2018-04-19T07:31:07.201Z,1023.64
2018-04-19T07:32:07.279Z,1023.65
2018-04-19T07:33:07.156Z,1023.66
2018-04-19T07:34:07.127Z,1023.66
2018-04-19T07:35:07.101Z,1023.65
2018-04-19T07:36:07.086Z,1023.63
2018-04-19T07:37:07.064Z,1023.64
2018-04-19T07:38:07.043Z,1023.65
2018-04-19T07:39:07.036Z,1023.68
2018-04-19T07:40:06.991Z,1023.69
2018-04-19T07:41:06.981Z,1023.69
2018-04-19T07:42:06.955Z,1023.72
2018-04-19T07:43:06.933Z,1023.69
2018-04-19T07:44:06.908Z,1023.67
2018-04-19T07:45:07.105Z,1023.70
2018-04-19T07:46:06.919Z,1023.69
2018-04-19T07:47:06.843Z,1023.70
2018-04-19T07:48:06.825Z,1023.68
2018-04-19T07:49:06.805Z,1023.70
2018-04-19T07:50:06.781Z,1023.66
2018-04-19T07:51:06.753Z,1023.69
2018-04-19T07:52:06.827Z,1023.70
2018-04-19T07:53:06.718Z,1023.63
2018-04-19T07:54:06.692Z,1023.67
2018-04-19T07:55:06.671Z,1023.69
2018-04-19T07:56:06.657Z,1023.66
2018-04-19T07:57:06.628Z,1023.64
2018-04-19T07:58:06.608Z,1023.63
2018-04-19T07:59:06.591Z,1023.69
2018-04-19T08:00:06.557Z,1023.67
2018-04-19T08:01:06.536Z,1023.67
2018-04-19T08:02:06.524Z,1023.68
2018-04-19T08:03:06.501Z,1023.69
2018-04-19T08:04:06.480Z,1023.67
2018-04-19T08:05:06.453Z,1023.66
2018-04-19T08:06:06.435Z,1023.67
2018-04-19T08:07:06.424Z,1023.65
2018-04-19T08:08:06.393Z,1023.67
2018-04-19T08:09:06.366Z,1023.69
2018-04-19T08:10:06.357Z,1023.67
2018-04-19T08:11:06.398Z,1023.66
2018-04-19T08:12:06.303Z,1023.69
2018-04-19T08:13:06.283Z,1023.66
2018-04-19T08:14:06.269Z,1023.68
2018-04-19T08:15:06.239Z,1023.67
2018-04-19T08:16:06.224Z,1023.68
2018-04-19T08:17:06.199Z,1023.70
2018-04-19T08:18:06.185Z,1023.71
2018-04-19T08:19:06.153Z,1023.74
2018-04-19T08:20:06.139Z,1023.71
2018-04-19T08:21:06.125Z,1023.70
2018-04-19T08:22:06.094Z,1023.75
2018-04-19T08:23:06.090Z,1023.68
2018-04-19T08:24:06.047Z,1023.65
2018-04-19T08:25:06.031Z,1023.66
2018-04-19T08:26:06.011Z,1023.69
2018-04-19T08:27:05.990Z,1023.62
2018-04-19T08:28:05.968Z,1023.62
2018-04-19T08:29:05.952Z,1023.63
2018-04-19T08:30:05.947Z,1023.67
2018-04-19T08:31:05.904Z,1023.67
2018-04-19T08:32:05.888Z,1023.65
2018-04-19T08:33:05.864Z,1023.68
2018-04-19T08:34:05.845Z,1023.66
2018-04-19T08:35:05.819Z,1023.62
2018-04-19T08:36:05.813Z,1023.65
2018-04-19T08:37:05.793Z,1023.64
2018-04-19T08:38:05.767Z,1023.65
2018-04-19T08:39:05.744Z,1023.60
2018-04-19T08:40:05.728Z,1023.63
2018-04-19T08:41:05.701Z,1023.62
2018-04-19T08:42:05.680Z,1023.59
2018-04-19T08:43:05.663Z,1023.60
2018-04-19T08:44:05.637Z,1023.61
2018-04-19T08:45:05.620Z,1023.62
2018-04-19T08:46:05.596Z,1023.59
2018-04-19T08:47:05.577Z,1023.62
2018-04-19T08:48:05.558Z,1023.58
2018-04-19T08:49:05.534Z,1023.60
2018-04-19T08:50:05.518Z,1023.60
2018-04-19T08:51:05.506Z,1023.60
2018-04-19T08:52:05.489Z,1023.57
2018-04-19T08:53:05.455Z,1023.56
2018-04-19T08:54:05.434Z,1023.51
2018-04-19T08:55:05.430Z,1023.55
2018-04-19T08:56:05.395Z,1023.55
2018-04-19T08:57:05.373Z,1023.56
2018-04-19T08:58:05.353Z,1023.53
2018-04-19T08:59:05.344Z,1023.52
2018-04-19T09:00:05.318Z,1023.51
2018-04-19T09:01:05.300Z,1023.53
2018-04-19T09:02:05.283Z,1023.51
2018-04-19T09:03:05.257Z,1023.48
2018-04-19T09:04:05.238Z,1023.47
2018-04-19T09:05:05.216Z,1023.47
2018-04-19T09:06:05.197Z,1023.47
2018-04-19T09:07:05.174Z,1023.44
2018-04-19T09:08:05.157Z,1023.43
2018-04-19T09:09:05.131Z,1023.45
2018-04-19T09:10:05.117Z,1023.43
2018-04-19T09:11:05.096Z,1023.43
2018-04-19T09:12:05.069Z,1023.47
2018-04-19T09:13:05.061Z,1023.46
2018-04-19T09:14:05.043Z,1023.47
2018-04-19T09:15:05.011Z,1023.46
2018-04-19T09:16:04.999Z,1023.49
2018-04-19T09:17:04.970Z,1023.47
2018-04-19T09:18:04.956Z,1023.46
2018-04-19T09:19:04.937Z,1023.45
2018-04-19T09:20:04.916Z,1023.45
2018-04-19T09:21:04.895Z,1023.44
2018-04-19T09:22:04.879Z,1023.46
2018-04-19T09:23:04.856Z,1023.45
2018-04-19T09:24:04.841Z,1023.44
2018-04-19T09:25:04.823Z,1023.46
2018-04-19T09:26:04.797Z,1023.40
2018-04-19T09:27:04.783Z,1023.44
2018-04-19T09:28:04.760Z,1023.40
2018-04-19T09:29:04.756Z,1023.37
2018-04-19T09:30:04.722Z,1023.38
2018-04-19T09:31:04.717Z,1023.38
2018-04-19T09:32:04.683Z,1023.37
2018-04-19T09:33:04.671Z,1023.41
2018-04-19T09:34:04.642Z,1023.37
2018-04-19T09:35:04.630Z,1023.34
2018-04-19T09:36:04.610Z,1023.34
2018-04-19T09:37:04.591Z,1023.31
2018-04-19T09:38:04.569Z,1023.33
2018-04-19T09:39:04.550Z,1023.34
2018-04-19T09:40:04.526Z,1023.35
2018-04-19T09:41:04.514Z,1023.31
2018-04-19T09:42:04.496Z,1023.32
2018-04-19T09:43:04.477Z,1023.28
2018-04-19T09:44:04.454Z,1023.27
2018-04-19T09:45:04.446Z,1023.28
2018-04-19T09:46:04.418Z,1023.29
2018-04-19T09:47:04.393Z,1023.28
2018-04-19T09:48:04.383Z,1023.30
2018-04-19T09:49:04.363Z,1023.29
2018-04-19T09:50:04.345Z,1023.32
2018-04-19T09:51:04.326Z,1023.28
2018-04-19T09:52:04.295Z,1023.29
2018-04-19T09:53:04.287Z,1023.27
2018-04-19T09:54:04.355Z,1023.31
2018-04-19T09:55:04.251Z,1023.27
2018-04-19T09:56:04.230Z,1023.25
2018-04-19T09:57:04.212Z,1023.25
2018-04-19T09:58:04.191Z,1023.24
2018-04-19T09:59:04.190Z,1023.23
2018-04-19T10:00:04.152Z,1023.25
2018-04-19T10:01:04.143Z,1023.23
2018-04-19T10:02:04.114Z,1023.22
2018-04-19T10:03:04.097Z,1023.23
2018-04-19T10:04:04.124Z,1023.21
2018-04-19T10:05:04.065Z,1023.22
2018-04-19T10:06:04.040Z,1023.19
2018-04-19T10:07:04.026Z,1023.17
2018-04-19T10:08:04.008Z,1023.21
2018-04-19T10:09:03.984Z,1023.18
2018-04-19T10:10:03.979Z,1023.17
2018-04-19T10:11:03.959Z,1023.19
2018-04-19T10:12:03.936Z,1023.15
2018-04-19T10:13:03.926Z,1023.18
2018-04-19T10:14:03.900Z,1023.18
2018-04-19T10:15:03.886Z,1023.15
2018-04-19T10:16:03.888Z,1023.18
2018-04-19T10:17:03.861Z,1023.15
2018-04-19T10:18:03.826Z,1023.14
2018-04-19T10:19:03.810Z,1023.13
2018-04-19T10:20:03.787Z,1023.16
2018-04-19T10:21:03.780Z,1023.17
2018-04-19T10:22:03.765Z,1023.13
2018-04-19T10:23:03.739Z,1023.12
2018-04-19T10:24:03.715Z,1023.13
2018-04-19T10:25:03.754Z,1023.11
2018-04-19T10:26:03.678Z,1023.07
2018-04-19T10:27:03.668Z,1023.08
2018-04-19T10:28:03.650Z,1023.10
2018-04-19T10:29:03.643Z,1023.10
2018-04-19T10:30:03.607Z,1023.07
2018-04-19T10:31:03.591Z,1023.02
2018-04-19T10:32:03.577Z,1023.05
2018-04-19T10:33:03.563Z,1023.03
2018-04-19T10:34:03.548Z,1023.00
2018-04-19T10:35:03.523Z,1022.96
2018-04-19T10:36:03.508Z,1022.95
2018-04-19T10:37:03.486Z,1022.97
2018-04-19T10:38:03.473Z,1022.97
2018-04-19T10:39:03.448Z,1022.95
2018-04-19T10:40:03.438Z,1022.93
2018-04-19T10:41:03.424Z,1022.93
2018-04-19T10:42:03.411Z,1022.90
2018-04-19T10:43:03.383Z,1022.93
2018-04-19T10:44:03.363Z,1022.91
2018-04-19T10:45:03.352Z,1022.92
2018-04-19T10:46:03.355Z,1022.92
2018-04-19T10:47:03.371Z,1022.92
2018-04-19T10:48:03.298Z,1022.88
2018-04-19T10:49:03.284Z,1022.91
2018-04-19T10:50:03.264Z,1022.92
2018-04-19T10:51:03.243Z,1022.94
2018-04-19T10:52:03.222Z,1022.88
2018-04-19T10:53:03.202Z,1022.85
2018-04-19T10:54:03.206Z,1022.83
2018-04-19T10:55:03.171Z,1022.82
2018-04-19T10:56:03.157Z,1022.81
2018-04-19T10:57:03.143Z,1022.78
2018-04-19T10:58:03.118Z,1022.78
2018-04-19T10:59:03.107Z,1022.79
2018-04-19T11:00:03.088Z,1022.77
2018-04-19T11:01:03.072Z,1022.74
2018-04-19T11:02:03.049Z,1022.76
2018-04-19T11:03:03.035Z,1022.75
2018-04-19T11:04:03.015Z,1022.75
2018-04-19T11:05:02.993Z,1022.76
2018-04-19T11:06:02.986Z,1022.76
2018-04-19T11:07:02.973Z,1022.71
2018-04-19T11:08:02.951Z,1022.70
2018-04-19T11:09:02.938Z,1022.70
2018-04-19T11:10:02.922Z,1022.71
2018-04-19T11:11:02.897Z,1022.64
2018-04-19T11:12:02.882Z,1022.67
2018-04-19T11:13:02.859Z,1022.61
2018-04-19T11:14:02.847Z,1022.61
2018-04-19T11:15:02.839Z,1022.65
2018-04-19T11:16:02.873Z,1022.65
2018-04-19T11:17:02.788Z,1022.67
2018-04-19T11:18:02.781Z,1022.66
2018-04-19T11:19:02.757Z,1022.63
2018-04-19T11:20:02.748Z,1022.63
2018-04-19T11:21:02.720Z,1022.59
2018-04-19T11:22:02.701Z,1022.61
2018-04-19T11:23:02.691Z,1022.62
2018-04-19T11:24:02.676Z,1022.62
2018-04-19T11:25:02.661Z,1022.56
2018-04-19T11:26:02.636Z,1022.56
2018-04-19T11:27:02.627Z,1022.51
2018-04-19T11:28:02.602Z,1022.53
2018-04-19T11:29:02.595Z,1022.53
2018-04-19T11:30:02.566Z,1022.49
2018-04-19T11:31:02.618Z,1022.54
2018-04-19T11:32:02.552Z,1022.52
2018-04-19T11:33:02.520Z,1022.53
2018-04-19T11:34:02.505Z,1022.51
2018-04-19T11:35:02.480Z,1022.58
2018-04-19T11:36:02.472Z,1022.55
2018-04-19T11:37:02.449Z,1022.53
2018-04-19T11:38:02.445Z,1022.51
2018-04-19T11:39:02.496Z,1022.47
2018-04-19T11:40:02.402Z,1022.43
2018-04-19T11:41:02.392Z,1022.44
2018-04-19T11:42:02.498Z,1022.44
2018-04-19T11:43:02.352Z,1022.44
2018-04-19T11:44:02.335Z,1022.44
2018-04-19T11:45:02.317Z,1022.43
2018-04-19T11:46:02.305Z,1022.45
2018-04-19T11:47:02.286Z,1022.46
2018-04-19T11:48:02.304Z,1022.38
2018-04-19T11:49:02.248Z,1022.41
2018-04-19T11:50:02.244Z,1022.40
2018-04-19T11:51:02.215Z,1022.43
2018-04-19T11:52:02.268Z,1022.41
2018-04-19T11:53:02.181Z,1022.43
2018-04-19T11:54:02.170Z,1022.40
2018-04-19T11:55:02.146Z,1022.38
2018-04-19T11:56:02.138Z,1022.42
2018-04-19T11:57:02.125Z,1022.39
2018-04-19T11:58:02.100Z,1022.36
2018-04-19T11:59:02.080Z,1022.33
2018-04-19T12:00:02.064Z,1022.38
2018-04-19T12:01:02.135Z,1022.40
2018-04-19T12:02:02.072Z,1022.40
2018-04-19T12:03:02.019Z,1022.34
2018-04-19T12:04:02.002Z,1022.36
2018-04-19T12:05:01.994Z,1022.33
2018-04-19T12:06:01.964Z,1022.31
2018-04-19T12:07:01.959Z,1022.35
2018-04-19T12:08:01.934Z,1022.33
2018-04-19T12:09:01.983Z,1022.32
2018-04-19T12:10:01.913Z,1022.28
2018-04-19T12:11:01.904Z,1022.28
2018-04-19T12:12:01.888Z,1022.28
2018-04-19T12:13:01.855Z,1022.21
2018-04-19T12:14:01.838Z,1022.23
2018-04-19T12:15:01.815Z,1022.21
2018-04-19T12:16:01.814Z,1022.18
2018-04-19T12:17:01.792Z,1022.20
2018-04-19T12:18:01.768Z,1022.22
2018-04-19T12:19:01.755Z,1022.20
2018-04-19T12:20:01.739Z,1022.20
2018-04-19T12:21:01.738Z,1022.21
2018-04-19T12:22:01.715Z,1022.18
2018-04-19T12:23:01.689Z,1022.17
2018-04-19T12:24:01.674Z,1022.14
2018-04-19T12:25:01.666Z,1022.16
2018-04-19T12:26:01.636Z,1022.10
2018-04-19T12:27:01.738Z,1022.12
2018-04-19T12:28:01.730Z,1022.17
2018-04-19T12:29:01.588Z,1022.13
2018-04-19T12:30:01.575Z,1022.16
2018-04-19T12:31:01.824Z,1022.12
2018-04-19T12:32:01.547Z,1022.11
2018-04-19T12:33:01.532Z,1022.14
2018-04-19T12:34:01.516Z,1022.16
2018-04-19T12:35:01.491Z,1022.11
2018-04-19T12:36:01.479Z,1022.13
2018-04-19T12:37:01.461Z,1022.09
2018-04-19T12:38:01.454Z,1022.11
2018-04-19T12:39:01.433Z,1022.12
2018-04-19T12:40:01.435Z,1022.12
2018-04-19T12:41:01.399Z,1022.07
2018-04-19T12:42:01.385Z,1022.13
2018-04-19T12:43:01.368Z,1022.07
2018-04-19T12:44:01.357Z,1022.03
2018-04-19T12:45:01.332Z,1022.02
2018-04-19T12:46:01.321Z,1022.03
2018-04-19T12:47:01.308Z,1022.04
2018-04-19T12:48:01.297Z,1022.03
2018-04-19T12:49:01.284Z,1022.03
2018-04-19T12:50:01.266Z,1021.98
2018-04-19T12:51:01.239Z,1021.94
2018-04-19T12:52:01.236Z,1021.94
2018-04-19T12:53:01.208Z,1021.96
2018-04-19T12:54:01.198Z,1021.94
2018-04-19T12:55:01.181Z,1021.92
2018-04-19T12:56:01.164Z,1021.93
2018-04-19T12:57:01.140Z,1021.92
2018-04-19T12:58:01.128Z,1021.93
2018-04-19T12:59:01.114Z,1021.93
2018-04-19T13:00:01.099Z,1021.92
2018-04-19T13:01:01.077Z,1021.93
2018-04-19T13:02:01.058Z,1021.92
2018-04-19T13:03:01.043Z,1021.92
2018-04-19T13:04:01.028Z,1021.91
2018-04-19T13:05:01.017Z,1021.89
2018-04-19T13:06:01.014Z,1021.90
2018-04-19T13:07:00.985Z,1021.87
2018-04-19T13:08:00.965Z,1021.87
2018-04-19T13:09:00.967Z,1021.83
2018-04-19T13:10:01.566Z,1021.83
2018-04-19T13:11:00.923Z,1021.82
2018-04-19T13:12:00.905Z,1021.86
2018-04-19T13:13:00.891Z,1021.81
2018-04-19T13:14:00.877Z,1021.85
2018-04-19T13:15:00.859Z,1021.80
2018-04-19T13:16:00.840Z,1021.75
2018-04-19T13:17:00.843Z,1021.77
2018-04-19T13:18:00.824Z,1021.81
2018-04-19T13:19:00.799Z,1021.79
2018-04-19T13:20:00.964Z,1021.75
2018-04-19T13:21:00.916Z,1021.75
2018-04-19T13:22:00.745Z,1021.72
2018-04-19T13:23:00.731Z,1021.69
2018-04-19T13:24:00.714Z,1021.70
2018-04-19T13:25:00.699Z,1021.72
2018-04-19T13:26:00.830Z,1021.71
2018-04-19T13:27:00.885Z,1021.68
2018-04-19T13:28:00.761Z,1021.68
2018-04-19T13:29:00.753Z,1021.64
2018-04-19T13:30:00.759Z,1021.67
2018-04-19T13:31:00.753Z,1021.62
2018-04-19T13:32:00.695Z,1021.61
2018-04-19T13:33:00.680Z,1021.64
2018-04-19T13:34:00.664Z,1021.62
2018-04-19T13:35:00.713Z,1021.61
2018-04-19T13:36:00.627Z,1021.61
2018-04-19T13:37:00.605Z,1021.58
2018-04-19T13:38:00.591Z,1021.53
2018-04-19T13:39:00.590Z,1021.53
2018-04-19T13:40:00.573Z,1021.47
2018-04-19T13:41:00.553Z,1021.50
2018-04-19T13:42:00.445Z,1021.44
2018-04-19T13:43:00.425Z,1021.47
2018-04-19T13:44:00.410Z,1021.46
2018-04-19T13:45:00.403Z,1021.41
2018-04-19T13:46:00.370Z,1021.42
2018-04-19T13:47:00.357Z,1021.43
2018-04-19T13:48:00.340Z,1021.45
2018-04-19T13:49:00.323Z,1021.44
2018-04-19T13:50:00.318Z,1021.41
2018-04-19T13:51:00.293Z,1021.38
2018-04-19T13:52:00.275Z,1021.42
2018-04-19T13:53:00.269Z,1021.42
2018-04-19T13:54:00.248Z,1021.41
2018-04-19T13:55:00.248Z,1021.36
2018-04-19T13:56:00.218Z,1021.32
2018-04-19T13:57:00.203Z,1021.30
2018-04-19T13:58:00.181Z,1021.29
2018-04-19T13:59:00.180Z,1021.29
2018-04-19T14:00:00.148Z,1021.25
2018-04-19T14:01:00.135Z,1021.24
2018-04-19T14:02:00.131Z,1021.26
2018-04-19T14:03:00.108Z,1021.29
2018-04-19T14:04:00.079Z,1021.22
2018-04-19T14:05:00.070Z,1021.24
2018-04-19T14:06:00.046Z,1021.23
2018-04-19T14:07:00.035Z,1021.21
2018-04-19T14:08:00.014Z,1021.19
2018-04-19T14:09:01.506Z,1021.14
2018-04-19T14:09:59.983Z,1021.15
2018-04-19T14:11:00.095Z,1021.16
2018-04-19T14:11:59.962Z,1021.15
2018-04-19T14:12:59.927Z,1021.18
2018-04-19T14:13:59.980Z,1021.09
2018-04-19T14:14:59.993Z,1021.11
2018-04-19T14:15:59.890Z,1021.12
2018-04-19T14:16:59.863Z,1021.08
2018-04-19T14:17:59.846Z,1021.08
2018-04-19T14:18:59.831Z,1021.09
2018-04-19T14:19:59.963Z,1021.02
2018-04-19T14:20:59.799Z,1021.05
2018-04-19T14:21:59.784Z,1021.04
2018-04-19T14:22:59.994Z,1021.05
2018-04-19T14:23:59.839Z,1021.06
2018-04-19T14:24:59.744Z,1021.01
2018-04-19T14:25:59.731Z,1020.98
2018-04-19T14:26:59.693Z,1020.99
2018-04-19T14:27:59.777Z,1021.03
2018-04-19T14:28:59.661Z,1020.97
2018-04-19T14:29:59.634Z,1020.95
2018-04-19T14:30:59.657Z,1020.95
2018-04-19T14:31:59.607Z,1020.91
2018-04-19T14:32:59.588Z,1020.93
2018-04-19T14:33:59.566Z,1020.95
2018-04-19T14:34:59.557Z,1020.92
2018-04-19T14:35:59.534Z,1020.96
2018-04-19T14:36:59.522Z,1020.90
2018-04-19T14:37:59.534Z,1020.90
2018-04-19T14:38:59.499Z,1020.89
2018-04-19T14:39:59.476Z,1020.88
2018-04-19T14:40:59.453Z,1020.83
2018-04-19T14:41:59.434Z,1020.91
2018-04-19T14:42:59.413Z,1020.87
2018-04-19T14:43:59.404Z,1020.83
2018-04-19T14:44:59.392Z,1020.81
2018-04-19T14:45:59.358Z,1020.84
2018-04-19T14:46:59.413Z,1020.83
2018-04-19T14:47:59.328Z,1020.80
2018-04-19T14:48:59.409Z,1020.81
2018-04-19T14:49:59.298Z,1020.82
2018-04-19T14:50:59.279Z,1020.78
2018-04-19T14:51:59.257Z,1020.81
2018-04-19T14:52:59.243Z,1020.78
2018-04-19T14:53:59.220Z,1020.80
2018-04-19T14:54:59.204Z,1020.77
2018-04-19T14:55:59.225Z,1020.81
2018-04-19T14:56:59.179Z,1020.76
2018-04-19T14:57:59.165Z,1020.75
2018-04-19T14:58:59.139Z,1020.75
2018-04-19T14:59:59.115Z,1020.74
2018-04-19T15:00:59.112Z,1020.76
2018-04-19T15:01:59.086Z,1020.75
2018-04-19T15:02:59.065Z,1020.76
2018-04-19T15:03:59.057Z,1020.76
2018-04-19T15:04:59.032Z,1020.73
2018-04-19T15:05:59.024Z,1020.73
2018-04-19T15:06:59.012Z,1020.73
2018-04-19T15:07:58.977Z,1020.70
2018-04-19T15:08:58.970Z,1020.71
2018-04-19T15:09:58.944Z,1020.69
2018-04-19T15:10:58.942Z,1020.66
2018-04-19T15:11:58.920Z,1020.67
2018-04-19T15:12:58.889Z,1020.68
2018-04-19T15:13:58.893Z,1020.64
2018-04-19T15:14:58.882Z,1020.67
2018-04-19T15:15:58.847Z,1020.66
2018-04-19T15:16:58.823Z,1020.60
2018-04-19T15:17:58.815Z,1020.62
2018-04-19T15:18:58.822Z,1020.62
2018-04-19T15:19:58.792Z,1020.59
2018-04-19T15:20:58.755Z,1020.62
2018-04-19T15:21:58.741Z,1020.61
2018-04-19T15:22:58.731Z,1020.60
2018-04-19T15:23:58.700Z,1020.59
2018-04-19T15:24:58.692Z,1020.60
2018-04-19T15:25:58.677Z,1020.60
2018-04-19T15:26:58.664Z,1020.60
2018-04-19T15:27:58.648Z,1020.61
2018-04-19T15:28:58.616Z,1020.56
2018-04-19T15:29:58.599Z,1020.59
2018-04-19T15:30:58.590Z,1020.59
2018-04-19T15:31:58.581Z,1020.57
2018-04-19T15:32:58.547Z,1020.57
2018-04-19T15:33:58.529Z,1020.58
2018-04-19T15:34:58.512Z,1020.58
2018-04-19T15:35:58.508Z,1020.56
2018-04-19T15:36:58.473Z,1020.53
2018-04-19T15:37:58.463Z,1020.53
2018-04-19T15:38:58.481Z,1020.55
2018-04-19T15:39:58.435Z,1020.55
2018-04-19T15:40:58.411Z,1020.51
2018-04-19T15:41:58.382Z,1020.53
2018-04-19T15:42:58.382Z,1020.51
2018-04-19T15:43:58.358Z,1020.52
2018-04-19T15:44:58.328Z,1020.49
2018-04-19T15:45:58.319Z,1020.52
2018-04-19T15:46:58.313Z,1020.50
2018-04-19T15:47:58.289Z,1020.48
2018-04-19T15:48:58.275Z,1020.50
2018-04-19T15:49:58.333Z,1020.45
2018-04-19T15:50:58.234Z,1020.49
2018-04-19T15:51:58.209Z,1020.46
2018-04-19T15:52:58.207Z,1020.40
2018-04-19T15:53:58.177Z,1020.40
2018-04-19T15:54:58.210Z,1020.40
2018-04-19T15:55:58.166Z,1020.42
2018-04-19T15:56:58.118Z,1020.46
2018-04-19T15:57:58.109Z,1020.47
2018-04-19T15:58:58.162Z,1020.45
2018-04-19T15:59:58.108Z,1020.45
2018-04-19T16:00:58.080Z,1020.41
2018-04-19T16:01:58.094Z,1020.42
2018-04-19T16:02:58.020Z,1020.41
2018-04-19T16:03:57.997Z,1020.42
2018-04-19T16:04:58.015Z,1020.39
2018-04-19T16:05:57.967Z,1020.38
2018-04-19T16:06:57.941Z,1020.41
2018-04-19T16:07:57.933Z,1020.41
2018-04-19T16:08:57.915Z,1020.41
2018-04-19T16:09:57.899Z,1020.40
2018-04-19T16:10:57.881Z,1020.36
2018-04-19T16:11:57.870Z,1020.39
2018-04-19T16:12:57.979Z,1020.37
2018-04-19T16:13:57.953Z,1020.42
2018-04-19T16:14:57.810Z,1020.37
2018-04-19T16:15:57.796Z,1020.33
2018-04-19T16:16:57.775Z,1020.34
2018-04-19T16:17:57.765Z,1020.32
2018-04-19T16:18:57.767Z,1020.31
2018-04-19T16:19:57.739Z,1020.29
2018-04-19T16:20:57.713Z,1020.30
2018-04-19T16:21:57.696Z,1020.32
2018-04-19T16:22:57.668Z,1020.28
2018-04-19T16:23:57.690Z,1020.28
2018-04-19T16:24:57.650Z,1020.26
2018-04-19T16:25:57.617Z,1020.29
2018-04-19T16:26:57.645Z,1020.26
2018-04-19T16:27:57.620Z,1020.26
2018-04-19T16:28:57.567Z,1020.28
2018-04-19T16:29:57.550Z,1020.24
2018-04-19T16:30:57.522Z,1020.23
2018-04-19T16:31:57.507Z,1020.21
2018-04-19T16:32:57.500Z,1020.20
2018-04-19T16:33:57.479Z,1020.24
2018-04-19T16:34:57.458Z,1020.18
2018-04-19T16:35:57.437Z,1020.25
2018-04-19T16:36:57.503Z,1020.19
2018-04-19T16:37:57.427Z,1020.22
2018-04-19T16:38:57.384Z,1020.20
2018-04-19T16:39:57.363Z,1020.18
2018-04-19T16:40:57.342Z,1020.19
2018-04-19T16:41:57.372Z,1020.22
2018-04-19T16:42:57.539Z,1020.20
2018-04-19T16:43:57.299Z,1020.21
2018-04-19T16:44:57.281Z,1020.20
2018-04-19T16:45:57.255Z,1020.17
2018-04-19T16:46:57.248Z,1020.16
2018-04-19T16:47:57.228Z,1020.14
2018-04-19T16:48:57.205Z,1020.15
2018-04-19T16:49:57.195Z,1020.14
2018-04-19T16:50:57.179Z,1020.15
2018-04-19T16:51:57.159Z,1020.12
2018-04-19T16:52:57.135Z,1020.17
2018-04-19T16:53:57.136Z,1020.17
2018-04-19T16:54:57.111Z,1020.12
2018-04-19T16:55:57.091Z,1020.11
2018-04-19T16:56:57.081Z,1020.08
2018-04-19T16:57:57.055Z,1020.07
2018-04-19T16:58:57.638Z,1020.06
2018-04-19T16:59:57.023Z,1020.07
2018-04-19T17:00:57.001Z,1020.04
2018-04-19T17:01:56.995Z,1020.01
2018-04-19T17:02:56.972Z,1020.07
2018-04-19T17:03:56.958Z,1020.05
2018-04-19T17:04:56.945Z,1020.01
2018-04-19T17:05:56.924Z,1020.03
2018-04-19T17:06:56.915Z,1020.01
2018-04-19T17:07:56.890Z,1020.06
2018-04-19T17:08:56.886Z,1020.04
2018-04-19T17:09:56.857Z,1020.07
2018-04-19T17:10:56.879Z,1020.03
2018-04-19T17:11:56.836Z,1020.05
2018-04-19T17:12:56.815Z,1020.02
2018-04-19T17:13:56.814Z,1019.98
2018-04-19T17:14:56.787Z,1019.93
2018-04-19T17:15:56.773Z,1020.00
2018-04-19T17:16:56.756Z,1019.97
2018-04-19T17:17:56.748Z,1019.98
2018-04-19T17:18:56.725Z,1019.98
2018-04-19T17:19:56.704Z,1019.98
2018-04-19T17:20:56.688Z,1019.91
2018-04-19T17:21:56.751Z,1019.92
2018-04-19T17:22:56.664Z,1019.94
2018-04-19T17:23:56.641Z,1019.94
2018-04-19T17:24:56.633Z,1019.92
2018-04-19T17:25:56.612Z,1019.90
2018-04-19T17:26:56.598Z,1019.93
2018-04-19T17:27:56.587Z,1019.91
2018-04-19T17:28:56.564Z,1019.94
2018-04-19T17:29:56.556Z,1019.89
2018-04-19T17:30:56.542Z,1019.91
2018-04-19T17:31:56.524Z,1019.91
2018-04-19T17:32:56.503Z,1019.91
2018-04-19T17:33:56.487Z,1019.88
2018-04-19T17:34:56.477Z,1019.90
2018-04-19T17:35:56.466Z,1019.86
2018-04-19T17:36:56.451Z,1019.88
2018-04-19T17:37:56.432Z,1019.86
2018-04-19T17:38:56.419Z,1019.84
2018-04-19T17:39:56.398Z,1019.85
2018-04-19T17:40:56.385Z,1019.82
2018-04-19T17:41:56.368Z,1019.86
2018-04-19T17:42:56.352Z,1019.88
2018-04-19T17:43:56.338Z,1019.86
2018-04-19T17:44:56.328Z,1019.81
2018-04-19T17:45:56.311Z,1019.82
2018-04-19T17:46:56.286Z,1019.79
2018-04-19T17:47:56.279Z,1019.82
2018-04-19T17:48:56.257Z,1019.80
2018-04-19T17:49:56.240Z,1019.83
2018-04-19T17:50:56.226Z,1019.78
2018-04-19T17:51:56.205Z,1019.83
2018-04-19T17:52:56.193Z,1019.83
2018-04-19T17:53:56.186Z,1019.82
2018-04-19T17:54:56.166Z,1019.79
2018-04-19T17:55:56.147Z,1019.83
2018-04-19T17:56:56.132Z,1019.78
2018-04-19T17:57:56.117Z,1019.78
2018-04-19T17:58:56.094Z,1019.77
2018-04-19T17:59:56.085Z,1019.79
2018-04-19T18:00:56.064Z,1019.81
2018-04-19T18:01:56.055Z,1019.78
2018-04-19T18:02:56.084Z,1019.76
2018-04-19T18:03:56.058Z,1019.78
2018-04-19T18:04:56.004Z,1019.77
2018-04-19T18:05:55.985Z,1019.80
2018-04-19T18:06:55.974Z,1019.77
2018-04-19T18:07:55.956Z,1019.79
2018-04-19T18:08:55.936Z,1019.79
2018-04-19T18:09:55.920Z,1019.78
2018-04-19T18:10:55.897Z,1019.80
2018-04-19T18:11:55.893Z,1019.78
2018-04-19T18:12:55.869Z,1019.77
2018-04-19T18:13:55.850Z,1019.81
2018-04-19T18:14:55.833Z,1019.80
2018-04-19T18:15:55.826Z,1019.81
2018-04-19T18:16:55.856Z,1019.82
2018-04-19T18:17:55.781Z,1019.80
2018-04-19T18:18:55.768Z,1019.83
2018-04-19T18:19:55.752Z,1019.83
2018-04-19T18:20:55.734Z,1019.83
2018-04-19T18:21:55.721Z,1019.77
2018-04-19T18:22:55.754Z,1019.77
2018-04-19T18:23:55.706Z,1019.78
2018-04-19T18:24:55.664Z,1019.76
2018-04-19T18:25:55.651Z,1019.74
2018-04-19T18:26:55.630Z,1019.75
2018-04-19T18:27:55.631Z,1019.73
2018-04-19T18:28:55.598Z,1019.71
2018-04-19T18:29:55.579Z,1019.73
2018-04-19T18:30:55.561Z,1019.72
2018-04-19T18:31:55.542Z,1019.71
2018-04-19T18:32:55.532Z,1019.71
2018-04-19T18:33:55.506Z,1019.72
2018-04-19T18:34:55.496Z,1019.67
2018-04-19T18:35:55.470Z,1019.69
2018-04-19T18:36:55.498Z,1019.64
2018-04-19T18:37:55.435Z,1019.67
2018-04-19T18:38:55.418Z,1019.67
2018-04-19T18:39:55.410Z,1019.66